Terminal Aerodrome Forecast
Issued by NWS

Home | Current Version | Previous Version | Text Only | Print | Product List | Glossary Off
Versions: 1 2 3 4 5 6 7 8 9 10 11 12 13 14 15

000
FTUS43 KTOP 110655 RRA
TAFFOE
TAF
KFOE 110655Z 1107/1206 30009KT P6SM FEW250
     FM111200 27011KT P6SM FEW250 WS005/30035KT
     FM111600 30017G27KT P6SM SCT250
     FM111800 31025G35KT P6SM SCT035
     FM120200 33017G24KT P6SM OVC050=

USA.gov is the U.S. government's official web portal to all federal, state and local government web resources and services.